Airfield :
LOGIN :

Register | Disclaimer

   EN    FR    IT 

 










Legend :    VFR   Marginal VFR   IFR   Intensive IFR   Very Intensive IFR
Visi :
Ceiling :
>= 8 km
>= 3000ft
5 to 8 km
1000 to 3000 ft
1500m to 5 km
500 to 1000 ft
800 to 1500m
200 to 500 ft
< 800m
< 200 ft
Symbols :   Thunderstorms  Fog  Heavy snow  Heavy precipitations  Wind > 20 kt
SIGMETs :     Misc.  Thunderstorms  Icing  Turbulence  Mountain Waves  Volcanic Ashes






- Airport Elevation : 306 ft
- IATA code : EMA


EGNX - Nottingham East Midlands

CURRENT METAR :
  • 012250Z 04005KT CAVOK 07/06 Q0992

EXPIRED METARs :
  • 012220Z 08005KT 9999 FEW042 07/05 Q0993
  • 012150Z 09005KT 9999 FEW046 08/06 Q0993
  • 012120Z 10006KT 060V120 9999 FEW046 08/06 Q0993
  • 012050Z 10005KT CAVOK 09/06 Q0993

TAF TAF EGNX
Valid from the 01 at 18:00 until the 02 at 18:00 UTC


011655Z 0118/0218 15005KT 9999 FEW040
BECMG 0200/0203 06012KT
PROB40
TEMPO 0206/0212 6000 RA
PROB30
TEMPO 0209/0216 04018G28KT
TEMPO 0212/0218 6000 RA
PROB40
TEMPO 0212/0217 3000 +RA BKN014
ATIS : +44 1332 852 852 (ext 3201)



MET'MAP, your aeronautical weather chart ! - Copyright ORBIFLY December 2007 - Disclaimer

ORBIFLY MET'MAP TEAM :

Programming & Development : Alexandra Zaïnal
Concept & original design : Baudouin d'Aumeries
Assistance for programming : Marc-Olivier Méhu
Technical & hardware support : Manuel Goepfert

Contact : metmap@orbifly.com




SOURCES & CREDITS :

   NOAA